.
WxDataArchive / Data Records for 2011-04-08
2011-04-07 April 2011 2011-04-09

Data Records for Friday, 08 April 2011

Time	Temp	Chill	HIndex	Humid	Dewpt	 Wind 	HiWind	WindDir	Rain 	Barom 
-----	----	-----	------	-----	-----	------	------	-------	-----	----- 
00:00	41.1	41.1	41.1	88	37.8	3	7	112	0.00	30.037 
00:05	41.1	38.6	41.1	88	37.8	4	12	112	0.00	30.037 
00:10	41.1	41.1	41.1	87	37.5	3	10	112	0.00	30.037 
00:15	41.2	37.9	41.2	87	37.6	5	12	112	0.00	30.043 
00:20	41.2	41.2	41.2	87	37.6	3	6	90	0.00	30.043 
00:25	41.1	41.1	41.1	88	37.8	3	7	112	0.00	30.043 
00:30	41.1	37.8	41.1	88	37.8	5	10	112	0.00	30.043 
00:35	40.9	37.5	40.9	88	37.6	5	14	90	0.00	30.043 
00:40	40.9	40.9	40.9	89	37.9	3	10	90	0.00	30.043 
00:45	40.9	40.9	40.9	89	37.9	1	4	22	0.00	30.044 
00:50	40.9	40.9	40.9	89	37.9	1	6	112	0.01	30.044 
00:55	40.9	40.9	40.9	90	38.2	1	7	112	0.00	30.044 
01:00	40.8	40.8	40.8	90	38.1	2	5	45	0.00	30.056 
01:05	40.8	40.8	40.8	90	38.1	1	7	68	0.01	30.056 
01:10	40.8	40.8	40.8	90	38.1	2	6	90	0.00	30.056 
01:15	40.6	40.6	40.6	91	38.2	2	6	112	0.00	30.061 
01:20	40.6	40.6	40.6	91	38.2	2	8	112	0.01	30.061 
01:25	40.6	40.6	40.6	91	38.2	1	4	112	0.01	30.061 
01:30	40.6	40.6	40.6	92	38.5	1	4	112	0.01	30.068 
01:35	40.6	40.6	40.6	92	38.5	1	5	22	0.00	30.068 
01:40	40.6	40.6	40.6	92	38.5	2	4	45	0.01	30.068 
01:45	40.6	40.6	40.6	92	38.5	1	5	45	0.01	30.044 
01:50	40.6	40.6	40.6	92	38.5	3	9	112	0.00	30.044 
01:55	40.5	40.5	40.5	92	38.4	3	9	112	0.00	30.044 
02:00	40.5	37.9	40.5	93	38.6	4	10	90	0.00	30.030 
02:05	40.5	40.5	40.5	93	38.6	2	5	90	0.00	30.030 
02:10	40.5	37.9	40.5	93	38.6	4	11	90	0.01	30.030 
02:15	40.5	37.1	40.5	93	38.6	5	11	90	0.00	30.002 
02:20	40.3	37.7	40.3	93	38.4	4	11	112	0.00	30.002 
02:25	40.3	40.3	40.3	93	38.4	2	7	112	0.00	30.002 
02:30	40.5	40.5	40.5	94	38.9	3	9	112	0.00	29.997 
02:35	40.5	40.5	40.5	94	38.9	3	6	112	0.00	29.997 
02:40	40.5	40.5	40.5	94	38.9	2	6	112	0.00	29.997 
02:45	40.6	40.6	40.6	94	39.0	1	5	22	0.01	29.987 
02:50	40.6	40.6	40.6	94	39.0	2	7	90	0.00	29.987 
02:55	40.8	40.8	40.8	94	39.2	3	6	90	0.00	29.987 
03:00	40.8	40.8	40.8	94	39.2	2	7	112	0.01	29.982 
03:05	40.8	40.8	40.8	94	39.2	2	7	112	0.02	29.982 
03:10	40.8	38.2	40.8	94	39.2	4	5	112	0.01	29.982 
03:15	40.8	40.8	40.8	95	39.5	2	5	112	0.00	29.976 
03:20	40.8	38.2	40.8	95	39.5	4	10	112	0.01	29.976 
03:25	40.8	40.8	40.8	95	39.5	3	6	90	0.01	29.976 
03:30	40.8	38.2	40.8	95	39.5	4	6	112	0.02	29.971 
03:35	40.8	38.2	40.8	95	39.5	4	10	112	0.02	29.971 
03:40	40.8	37.4	40.8	95	39.5	5	10	112	0.02	29.971 
03:45	40.8	38.2	40.8	95	39.5	4	8	135	0.02	29.965 
03:50	40.8	38.2	40.8	95	39.5	4	10	90	0.02	29.965 
03:55	40.8	40.8	40.8	95	39.5	2	4	112	0.01	29.965 
04:00	40.8	40.8	40.8	95	39.5	3	7	90	0.02	29.986 
04:05	40.8	40.8	40.8	95	39.5	2	5	112	0.02	29.986 
04:10	40.6	40.6	40.6	95	39.3	2	5	112	0.02	29.986 
04:15	40.6	40.6	40.6	95	39.3	2	4	112	0.01	29.978 
04:20	40.6	40.6	40.6	96	39.5	3	9	112	0.01	29.978 
04:25	40.8	37.4	40.8	96	39.7	5	10	90	0.01	29.978 
04:30	40.6	38.0	40.6	96	39.5	4	9	112	0.02	29.968 
04:35	40.6	40.6	40.6	96	39.5	3	6	90	0.01	29.968 
04:40	40.5	40.5	40.5	96	39.5	3	6	112	0.00	29.968 
04:45	40.5	37.9	40.5	96	39.5	4	10	112	0.01	29.959 
04:50	40.3	37.7	40.3	96	39.3	4	12	90	0.00	29.959 
04:55	40.2	36.7	40.2	96	39.2	5	9	112	0.01	29.959 
05:00	40.2	37.5	40.2	96	39.2	4	10	112	0.00	29.944 
05:05	40.2	37.5	40.2	96	39.2	4	10	112	0.00	29.944 
05:10	40.2	36.7	40.2	96	39.2	5	11	112	0.00	29.944 
05:15	40.2	37.5	40.2	96	39.2	4	10	112	0.00	29.930 
05:20	40.3	37.7	40.3	96	39.3	4	8	112	0.00	29.930 
05:25	40.3	36.8	40.3	96	39.3	5	11	90	0.00	29.930 
05:30	40.5	37.1	40.5	96	39.5	5	11	112	0.00	29.922 
05:35	40.6	37.2	40.6	96	39.5	5	13	112	0.00	29.922 
05:40	40.6	37.2	40.6	96	39.5	5	11	90	0.00	29.922 
05:45	40.9	37.5	40.9	96	39.8	5	11	112	0.00	29.918 
05:50	41.1	37.1	41.1	96	40.0	6	11	112	0.00	29.918 
05:55	41.1	41.1	41.1	96	40.0	3	9	112	0.00	29.918 
06:00	41.1	38.6	41.1	96	40.0	4	9	112	0.00	29.916 
06:05	41.2	41.2	41.2	96	40.1	3	10	112	0.00	29.916 
06:10	41.2	38.7	41.2	96	40.1	4	10	112	0.01	29.916 
06:15	41.2	41.2	41.2	96	40.1	2	6	90	0.00	29.910 
06:20	41.2	41.2	41.2	96	40.1	3	9	112	0.00	29.910 
06:25	41.3	38.8	41.3	96	40.2	4	12	112	0.00	29.910 
06:30	41.3	38.8	41.3	96	40.2	4	12	112	0.00	29.907 
06:35	41.3	41.3	41.3	96	40.2	3	6	112	0.00	29.907 
06:40	41.5	39.1	41.5	96	40.4	4	9	90	0.01	29.907 
06:45	41.6	41.6	41.6	96	40.5	3	7	112	0.00	29.907 
06:50	41.6	39.2	41.6	96	40.5	4	9	90	0.01	29.907 
06:55	41.8	39.4	41.8	96	40.7	4	10	90	0.00	29.907 
07:00	41.9	39.5	41.9	96	40.8	4	10	112	0.01	29.905 
07:05	41.9	41.9	41.9	96	40.8	3	6	112	0.00	29.905 
07:10	42.1	39.7	42.1	96	41.0	4	9	112	0.00	29.905 
07:15	42.1	38.3	42.1	96	41.0	6	12	90	0.00	29.898 
07:20	42.2	39.1	42.2	96	41.1	5	11	112	0.00	29.898 
07:25	42.2	39.1	42.2	96	41.1	5	11	90	0.00	29.898 
07:30	42.3	39.2	42.3	96	41.2	5	12	112	0.00	29.892 
07:35	42.3	39.2	42.3	96	41.2	5	10	90	0.00	29.892 
07:40	42.5	40.2	42.5	96	41.4	4	10	90	0.00	29.892 
07:45	42.6	40.3	42.6	96	41.5	4	11	90	0.00	29.896 
07:50	42.6	39.5	42.6	96	41.5	5	10	112	0.00	29.896 
07:55	42.8	39.8	42.8	96	41.7	5	13	90	0.01	29.896 
08:00	42.8	40.6	42.8	96	41.7	4	10	90	0.00	29.895 
08:05	42.9	39.2	42.9	96	41.8	6	12	90	0.00	29.895 
08:10	42.9	39.9	42.9	96	41.8	5	10	112	0.00	29.895 
08:15	43.1	39.5	43.1	96	42.0	6	12	90	0.00	29.901 
08:20	43.2	39.6	43.2	96	42.1	6	12	90	0.01	29.901 
08:25	43.2	43.2	43.2	96	42.1	2	4	112	0.00	29.901 
08:30	43.3	43.3	43.3	96	42.2	1	4	135	0.00	29.931 
08:35	43.5	43.5	43.5	96	42.4	2	5	45	0.00	29.931 
08:40	43.6	43.6	43.6	96	42.5	3	10	112	0.01	29.931 
08:45	43.8	40.9	43.8	96	42.7	5	12	112	0.01	29.921 
08:50	43.9	43.9	43.9	96	42.8	2	12	112	0.01	29.921 
08:55	43.9	43.9	43.9	96	42.8	1	4	45	0.01	29.921 
09:00	43.9	43.9	43.9	96	42.8	1	5	45	0.00	29.937 
09:05	43.9	43.9	43.9	96	42.8	0	2	45	0.00	29.937 
09:10	43.9	43.9	43.9	96	42.8	0	3	45	0.01	29.937 
09:15	44.1	44.1	44.1	96	43.0	1	4	45	0.00	29.926 
09:20	44.1	44.1	44.1	96	43.0	0	2	68	0.00	29.926 
09:25	44.2	44.2	44.2	96	43.1	0	5	90	0.01	29.926 
09:30	44.2	44.2	44.2	96	43.1	1	4	90	0.00	29.926 
09:35	44.3	44.3	44.3	96	43.2	1	4	180	0.00	29.926 
09:40	44.3	44.3	44.3	96	43.2	1	4	135	0.00	29.926 
09:45	44.5	44.5	44.5	96	43.4	1	4	45	0.00	29.923 
09:50	44.5	44.5	44.5	96	43.4	1	3	90	0.00	29.923 
09:55	44.5	44.5	44.5	96	43.4	1	6	90	0.00	29.923 
10:00	44.3	44.3	44.3	96	43.2	1	6	90	0.00	29.930 
10:05	44.2	44.2	44.2	96	43.1	1	4	135	0.00	29.930 
10:10	44.2	44.2	44.2	96	43.1	1	5	22	0.01	29.930 
10:15	43.9	43.9	43.9	96	42.8	2	6	112	0.00	29.927 
10:20	43.8	43.8	43.8	96	42.7	2	6	112	0.00	29.927 
10:25	43.6	43.6	43.6	96	42.5	2	7	112	0.00	29.927 
10:30	43.5	43.5	43.5	96	42.4	2	6	112	0.00	29.927 
10:35	43.3	43.3	43.3	96	42.2	2	6	112	0.00	29.927 
10:40	43.2	41.0	43.2	96	42.1	4	11	112	0.00	29.927 
10:45	43.1	43.1	43.1	96	42.0	2	11	112	0.00	29.921 
10:50	43.1	43.1	43.1	96	42.0	3	12	112	0.01	29.921 
10:55	43.2	43.2	43.2	96	42.1	3	10	112	0.00	29.921 
11:00	43.1	40.9	43.1	96	42.0	4	10	112	0.00	29.920 
11:05	43.2	43.2	43.2	96	42.1	2	6	112	0.00	29.920 
11:10	43.2	41.0	43.2	96	42.1	4	11	90	0.00	29.920 
11:15	43.2	43.2	43.2	96	42.1	3	9	90	0.00	29.917 
11:20	43.3	43.3	43.3	96	42.2	3	10	112	0.00	29.917 
11:25	43.3	43.3	43.3	96	42.2	2	6	112	0.00	29.917 
11:30	43.3	43.3	43.3	96	42.2	2	6	45	0.00	29.924 
11:35	43.5	43.5	43.5	96	42.4	3	11	22	0.00	29.924 
11:40	43.5	41.4	43.5	96	42.4	4	10	90	0.00	29.924 
11:45	43.6	43.6	43.6	96	42.5	3	11	112	0.00	29.923 
11:50	43.8	41.7	43.8	96	42.7	4	10	112	0.00	29.923 
11:55	43.8	41.7	43.8	96	42.7	4	11	135	0.00	29.923 
12:00	43.9	43.9	43.9	96	42.8	2	15	112	0.00	29.925 
12:05	43.8	43.8	43.8	96	42.7	3	8	90	0.00	29.925 
12:10	43.9	43.9	43.9	96	42.8	2	6	90	0.00	29.925 
12:15	43.9	43.9	43.9	96	42.8	3	12	112	0.00	29.928 
12:20	43.9	41.8	43.9	96	42.8	4	12	112	0.00	29.928 
12:25	44.1	44.1	44.1	96	43.0	2	7	90	0.00	29.928 
12:30	44.1	44.1	44.1	96	43.0	3	11	90	0.00	29.934 
12:35	44.2	44.2	44.2	96	43.1	3	11	90	0.00	29.934 
12:40	44.3	44.3	44.3	96	43.2	3	6	90	0.00	29.934 
12:45	44.5	44.5	44.5	96	43.4	1	4	112	0.00	29.940 
12:50	44.5	44.5	44.5	96	43.4	2	7	112	0.00	29.940 
12:55	44.6	44.6	44.6	96	43.5	2	8	112	0.00	29.940 
13:00	44.8	44.8	44.8	96	43.7	3	11	90	0.00	29.936 
13:05	44.9	44.9	44.9	96	43.8	3	10	112	0.00	29.936 
13:10	45.1	43.2	45.1	96	44.0	4	12	112	0.00	29.936 
13:15	45.4	43.6	45.4	96	44.3	4	7	90	0.00	29.923 
13:20	45.5	43.7	45.5	96	44.4	4	12	90	0.00	29.923 
13:25	45.7	43.2	45.7	96	44.6	5	13	112	0.00	29.923 
13:30	45.7	43.9	45.7	96	44.6	4	11	90	0.00	29.917 
13:35	45.7	42.0	45.7	96	44.6	7	14	112	0.00	29.917 
13:40	45.8	42.1	45.8	96	44.7	7	15	90	0.00	29.917 
13:45	46.1	44.4	46.1	96	45.0	4	10	112	0.00	29.908 
13:50	46.2	44.5	46.2	96	45.1	4	10	112	0.00	29.908 
13:55	46.2	44.5	46.2	96	45.1	4	14	112	0.00	29.908 
14:00	46.2	43.8	46.2	96	45.1	5	12	112	0.00	29.923 
14:05	46.2	46.2	46.2	96	45.1	3	10	90	0.00	29.923 
14:10	46.4	44.0	46.4	96	45.3	5	12	90	0.00	29.923 
14:15	46.5	46.5	46.5	96	45.4	3	9	90	0.00	29.928 
14:20	46.5	44.8	46.5	96	45.4	4	10	112	0.00	29.928 
14:25	46.5	46.5	46.5	96	45.4	3	9	112	0.00	29.928 
14:30	46.7	46.7	46.7	96	45.6	3	9	90	0.00	29.930 
14:35	46.5	46.5	46.5	96	45.4	3	9	90	0.00	29.930 
14:40	46.7	46.7	46.7	96	45.6	3	9	112	0.00	29.930 
14:45	46.7	46.7	46.7	96	45.6	3	9	90	0.00	29.933 
14:50	46.8	46.8	46.8	96	45.7	3	6	112	0.00	29.933 
14:55	46.8	46.8	46.8	96	45.7	3	9	90	0.00	29.933 
15:00	47.0	47.0	47.0	96	45.9	3	6	112	0.00	29.936 
15:05	46.8	46.8	46.8	96	45.7	3	7	90	0.00	29.936 
15:10	47.0	47.0	47.0	96	45.9	3	6	90	0.00	29.936 
15:15	47.0	47.0	47.0	96	45.9	2	6	112	0.00	29.942 
15:20	47.0	47.0	47.0	96	45.9	3	6	90	0.00	29.942 
15:25	47.1	47.1	47.1	96	46.0	2	6	112	0.00	29.942 
15:30	47.3	47.3	47.3	96	46.2	2	5	112	0.00	29.939 
15:35	47.3	47.3	47.3	96	46.2	2	6	112	0.00	29.939 
15:40	47.4	47.4	47.4	96	46.3	1	3	112	0.00	29.939 
15:45	47.4	47.4	47.4	96	46.3	2	7	90	0.00	29.938 
15:50	47.4	47.4	47.4	95	46.0	2	6	112	0.00	29.938 
15:55	47.4	47.4	47.4	96	46.3	1	4	90	0.00	29.938 
16:00	47.4	47.4	47.4	95	46.0	2	7	90	0.00	29.943 
16:05	47.4	47.4	47.4	95	46.0	1	5	112	0.00	29.943 
16:10	47.4	47.4	47.4	95	46.0	1	4	90	0.00	29.943 
16:15	47.4	47.4	47.4	95	46.0	2	5	112	0.00	29.944 
16:20	47.4	47.4	47.4	95	46.0	1	3	112	0.00	29.944 
16:25	47.4	47.4	47.4	95	46.0	2	9	112	0.00	29.944 
16:30	47.6	47.6	47.6	95	46.2	1	4	45	0.00	29.945 
16:35	47.6	47.6	47.6	95	46.2	1	7	45	0.00	29.945 
16:40	47.6	47.6	47.6	94	46.0	3	6	90	0.00	29.945 
16:45	47.6	47.6	47.6	94	46.0	3	6	90	0.00	29.949 
16:50	47.7	47.7	47.7	94	46.1	1	5	90	0.00	29.949 
16:55	47.7	47.7	47.7	94	46.1	2	7	112	0.00	29.949 
17:00	47.7	47.7	47.7	94	46.1	1	4	112	0.00	29.953 
17:05	47.7	47.7	47.7	93	45.8	2	7	112	0.00	29.953 
17:10	47.7	47.7	47.7	93	45.8	2	7	135	0.00	29.953 
17:15	47.9	47.9	47.9	93	46.0	2	5	90	0.00	29.954 
17:20	47.9	47.9	47.9	93	46.0	1	4	90	0.00	29.954 
17:25	48.0	48.0	48.0	93	46.1	1	5	90	0.00	29.954 
17:30	48.2	48.2	48.2	93	46.3	1	3	112	0.00	29.957 
17:35	48.2	48.2	48.2	93	46.3	2	5	90	0.00	29.957 
17:40	48.2	48.2	48.2	93	46.3	1	6	90	0.00	29.957 
17:45	48.3	48.3	48.3	92	46.1	2	6	112	0.00	29.964 
17:50	48.5	48.5	48.5	92	46.3	1	6	112	0.00	29.964 
17:55	48.6	48.6	48.6	92	46.4	2	4	112	0.00	29.964 
18:00	48.6	48.6	48.6	92	46.4	1	4	112	0.00	29.967 
18:05	48.6	48.6	48.6	92	46.4	2	5	90	0.00	29.967 
18:10	48.8	48.8	48.8	92	46.6	1	5	22	0.00	29.967 
18:15	48.8	48.8	48.8	92	46.6	1	3	22	0.00	29.973 
18:20	48.8	48.8	48.8	91	46.3	2	5	112	0.00	29.973 
18:25	48.8	48.8	48.8	91	46.3	2	7	90	0.00	29.973 
18:30	48.9	48.9	48.9	91	46.4	1	4	90	0.00	29.974 
18:35	48.9	48.9	48.9	91	46.4	2	7	112	0.00	29.974 
18:40	49.1	49.1	49.1	91	46.6	2	6	112	0.00	29.974 
18:45	49.1	49.1	49.1	91	46.6	1	4	112	0.00	29.981 
18:50	49.1	49.1	49.1	91	46.6	1	5	68	0.00	29.981 
18:55	49.2	49.2	49.2	91	46.7	1	4	90	0.00	29.981 
19:00	49.2	49.2	49.2	91	46.7	1	4	68	0.00	29.983 
19:05	49.2	49.2	49.2	90	46.4	1	3	68	0.00	29.983 
19:10	49.2	49.2	49.2	90	46.4	2	6	90	0.00	29.983 
19:15	49.2	49.2	49.2	90	46.4	2	9	112	0.00	29.985 
19:20	49.2	49.2	49.2	90	46.4	1	3	90	0.00	29.985 
19:25	49.2	49.2	49.2	90	46.4	1	5	112	0.00	29.985 
19:30	49.2	49.2	49.2	90	46.4	1	4	90	0.00	29.994 
19:35	49.2	49.2	49.2	90	46.4	1	3	90	0.00	29.994 
19:40	49.2	49.2	49.2	90	46.4	2	8	90	0.00	29.994 
19:45	49.1	49.1	49.1	90	46.3	1	5	22	0.00	29.991 
19:50	49.1	49.1	49.1	90	46.3	2	10	90	0.00	29.991 
19:55	49.1	49.1	49.1	89	46.0	2	5	90	0.00	29.991 
20:00	48.9	48.9	48.9	89	45.8	2	5	90	0.00	29.986 
20:05	48.9	48.9	48.9	89	45.8	2	6	112	0.00	29.986 
20:10	48.8	48.8	48.8	89	45.7	1	6	90	0.00	29.986 
20:15	48.8	48.8	48.8	89	45.7	3	11	112	0.00	29.986 
20:20	48.6	48.6	48.6	89	45.5	2	7	90	0.00	29.986 
20:25	48.5	48.5	48.5	89	45.4	2	11	90	0.00	29.986 
20:30	48.3	48.3	48.3	89	45.2	3	8	90	0.00	29.990 
20:35	48.2	46.8	48.2	89	45.1	4	9	90	0.00	29.990 
20:40	47.9	47.9	47.9	89	44.8	2	8	90	0.00	29.990 
20:45	47.7	47.7	47.7	89	44.6	2	7	112	0.00	29.996 
20:50	47.7	47.7	47.7	89	44.6	3	10	68	0.00	29.996 
20:55	47.4	47.4	47.4	89	44.3	2	5	112	0.00	29.996 
21:00	47.1	47.1	47.1	89	44.0	3	11	112	0.00	30.004 
21:05	47.0	47.0	47.0	90	44.2	3	10	112	0.00	30.004 
21:10	46.8	44.5	46.8	90	44.0	5	11	90	0.00	30.004 
21:15	46.7	45.1	46.7	90	43.9	4	11	90	0.00	30.014 
21:20	46.7	46.7	46.7	90	43.9	2	7	90	0.00	30.014 
21:25	46.5	46.5	46.5	90	43.7	3	10	112	0.00	30.014 
21:30	46.5	46.5	46.5	90	43.7	3	7	90	0.00	30.017 
21:35	46.4	46.4	46.4	91	43.9	3	7	90	0.00	30.017 
21:40	46.4	44.7	46.4	90	43.6	4	10	112	0.00	30.017 
21:45	46.2	43.8	46.2	90	43.4	5	10	112	0.00	30.028 
21:50	46.2	44.5	46.2	89	43.1	4	11	112	0.00	30.028 
21:55	46.2	44.5	46.2	89	43.1	4	7	90	0.00	30.028 
22:00	46.2	46.2	46.2	89	43.1	3	6	112	0.00	30.029 
22:05	46.4	46.4	46.4	88	43.0	3	6	90	0.00	30.029 
22:10	46.4	46.4	46.4	88	43.0	3	6	90	0.00	30.029 
22:15	46.4	46.4	46.4	88	43.0	3	6	90	0.00	30.030 
22:20	46.4	44.7	46.4	88	43.0	4	11	112	0.00	30.030 
22:25	46.5	46.5	46.5	88	43.1	3	7	112	0.00	30.030 
22:30	46.5	46.5	46.5	88	43.1	3	10	112	0.00	30.029 
22:35	46.5	46.5	46.5	88	43.1	3	7	90	0.00	30.029 
22:40	46.5	46.5	46.5	88	43.1	3	9	90	0.00	30.029 
22:45	46.5	44.8	46.5	87	42.8	4	7	112	0.00	30.030 
22:50	46.5	46.5	46.5	87	42.8	3	9	90	0.00	30.030 
22:55	46.5	46.5	46.5	88	43.1	2	4	90	0.00	30.030 
23:00	46.5	46.5	46.5	88	43.1	2	5	90	0.00	30.032 
23:05	46.5	46.5	46.5	88	43.1	2	6	90	0.00	30.032 
23:10	46.5	46.5	46.5	88	43.1	2	5	112	0.00	30.032 
23:15	46.4	46.4	46.4	88	43.0	2	6	90	0.00	30.033 
23:20	46.4	46.4	46.4	88	43.0	1	4	90	0.00	30.033 
23:25	46.4	46.4	46.4	88	43.0	1	5	112	0.00	30.033 
23:30	46.4	46.4	46.4	88	43.0	1	4	90	0.00	30.034 
23:35	46.4	46.4	46.4	88	43.0	1	3	90	0.00	30.034 
23:40	46.4	46.4	46.4	88	43.0	2	4	135	0.00	30.034 
23:45	46.4	46.4	46.4	88	43.0	2	6	112	0.00	30.035 
23:50	46.4	46.4	46.4	88	43.0	1	4	112	0.00	30.035 
23:55	46.4	46.4	46.4	88	43.0	1	6	90	0.00	30.035 

CoCoRaHS
IN-AL-39
A2 Web Hosting
Creative Commons License
GoDaddy
search engine by freefind advanced

loaded 2018-11-15 18:32:41 • last modified 2010-11-18 10:43:29
Privacy PolicyDisclaimer
• wx.awcolley.com is powered by PmWiki v.2002016 •
• all content (unless otherwise noted) © 2018 A W Colley